sensor_id;sensor_type;location;lat;lon;timestamp;pressure;altitude;pressure_sealevel;temperature;humidity
9277;BME280;4676;42.678;23.244;2023-06-24T00:01:28;94090.38;;;19.80;100.00
9277;BME280;4676;42.678;23.244;2023-06-24T00:03:56;94080.66;;;19.72;100.00
9277;BME280;4676;42.678;23.244;2023-06-24T00:06:23;94081.50;;;19.73;100.00
9277;BME280;4676;42.678;23.244;2023-06-24T00:08:53;94090.81;;;19.74;100.00
9277;BME280;4676;42.678;23.244;2023-06-24T00:11:26;94090.47;;;19.67;100.00
9277;BME280;4676;42.678;23.244;2023-06-24T00:13:53;94082.66;;;19.69;100.00
9277;BME280;4676;42.678;23.244;2023-06-24T00:16:19;94080.06;;;19.69;100.00
9277;BME280;4676;42.678;23.244;2023-06-24T00:18:52;94065.47;;;19.58;100.00
9277;BME280;4676;42.678;23.244;2023-06-24T00:21:19;94078.66;;;19.65;100.00
9277;BME280;4676;42.678;23.244;2023-06-24T00:23:46;94083.81;;;19.65;100.00
9277;BME280;4676;42.678;23.244;2023-06-24T00:26:16;94075.50;;;19.61;100.00
9277;BME280;4676;42.678;23.244;2023-06-24T00:28:43;94073.66;;;19.63;100.00
9277;BME280;4676;42.678;23.244;2023-06-24T00:31:09;94081.81;;;19.68;100.00
9277;BME280;4676;42.678;23.244;2023-06-24T00:33:37;94083.44;;;19.58;100.00
9277;BME280;4676;42.678;23.244;2023-06-24T00:36:04;94089.19;;;19.62;100.00
9277;BME280;4676;42.678;23.244;2023-06-24T00:38:31;94087.44;;;19.62;100.00
9277;BME280;4676;42.678;23.244;2023-06-24T00:40:58;94086.03;;;19.58;100.00
9277;BME280;4676;42.678;23.244;2023-06-24T00:43:26;94077.97;;;19.63;100.00
9277;BME280;4676;42.678;23.244;2023-06-24T00:45:55;94078.66;;;19.54;100.00
9277;BME280;4676;42.678;23.244;2023-06-24T00:48:22;94077.63;;;19.56;100.00
9277;BME280;4676;42.678;23.244;2023-06-24T00:50:49;94066.16;;;19.49;100.00
9277;BME280;4676;42.678;23.244;2023-06-24T00:53:16;94061.34;;;19.44;100.00
9277;BME280;4676;42.678;23.244;2023-06-24T00:55:43;94064.75;;;19.45;100.00
9277;BME280;4676;42.678;23.244;2023-06-24T00:58:11;94064.97;;;19.42;100.00
9277;BME280;4676;42.678;23.244;2023-06-24T01:00:42;94062.81;;;19.36;100.00
9277;BME280;4676;42.678;23.244;2023-06-24T01:03:11;94069.84;;;19.34;100.00
9277;BME280;4676;42.678;23.244;2023-06-24T01:05:39;94062.44;;;19.29;100.00
9277;BME280;4676;42.678;23.244;2023-06-24T01:08:07;94058.38;;;19.27;100.00
9277;BME280;4676;42.678;23.244;2023-06-24T01:10:33;94059.06;;;19.29;100.00
9277;BME280;4676;42.678;23.244;2023-06-24T01:13:00;94063.00;;;19.22;100.00
9277;BME280;4676;42.678;23.244;2023-06-24T01:15:27;94055.31;;;19.22;100.00
9277;BME280;4676;42.678;23.244;2023-06-24T01:17:59;94055.31;;;19.22;100.00
9277;BME280;4676;42.678;23.244;2023-06-24T01:20:31;94053.69;;;19.21;100.00
9277;BME280;4676;42.678;23.244;2023-06-24T01:23:42;94048.75;;;19.18;100.00
9277;BME280;4676;42.678;23.244;2023-06-24T01:26:26;94054.13;;;19.15;100.00
9277;BME280;4676;42.678;23.244;2023-06-24T01:32:02;94060.91;;;19.16;100.00
9277;BME280;4676;42.678;23.244;2023-06-24T01:34:36;94072.28;;;19.24;100.00
9277;BME280;4676;42.678;23.244;2023-06-24T01:37:08;94076.59;;;19.24;100.00
9277;BME280;4676;42.678;23.244;2023-06-24T01:39:42;94074.13;;;19.22;100.00
9277;BME280;4676;42.678;23.244;2023-06-24T01:42:14;94078.56;;;19.20;100.00
9277;BME280;4676;42.678;23.244;2023-06-24T01:44:43;94082.28;;;19.16;100.00
9277;BME280;4676;42.678;23.244;2023-06-24T01:47:14;94096.00;;;19.39;100.00
9277;BME280;4676;42.678;23.244;2023-06-24T01:49:42;94101.75;;;19.42;100.00
9277;BME280;4676;42.678;23.244;2023-06-24T01:52:10;94091.69;;;19.39;100.00
9277;BME280;4676;42.678;23.244;2023-06-24T01:54:39;94093.25;;;19.42;100.00
9277;BME280;4676;42.678;23.244;2023-06-24T01:57:08;94105.47;;;19.38;100.00
9277;BME280;4676;42.678;23.244;2023-06-24T01:59:41;94100.66;;;19.34;100.00
9277;BME280;4676;42.678;23.244;2023-06-24T02:02:09;94110.03;;;19.35;100.00
9277;BME280;4676;42.678;23.244;2023-06-24T02:04:38;94112.94;;;19.30;100.00
9277;BME280;4676;42.678;23.244;2023-06-24T02:07:07;94114.78;;;19.28;100.00
9277;BME280;4676;42.678;23.244;2023-06-24T02:09:35;94118.66;;;19.34;100.00
9277;BME280;4676;42.678;23.244;2023-06-24T02:12:03;94117.25;;;19.30;100.00
9277;BME280;4676;42.678;23.244;2023-06-24T02:14:32;94106.91;;;19.42;100.00
9277;BME280;4676;42.678;23.244;2023-06-24T02:17:04;94115.00;;;19.49;100.00
9277;BME280;4676;42.678;23.244;2023-06-24T02:19:31;94113.59;;;19.45;100.00
9277;BME280;4676;42.678;23.244;2023-06-24T02:22:01;94100.31;;;19.27;100.00
9277;BME280;4676;42.678;23.244;2023-06-24T02:24:30;94128.06;;;19.46;100.00
9277;BME280;4676;42.678;23.244;2023-06-24T02:26:57;94130.78;;;19.56;100.00
9277;BME280;4676;42.678;23.244;2023-06-24T02:29:26;94134.91;;;19.69;100.00
9277;BME280;4676;42.678;23.244;2023-06-24T02:31:53;94151.03;;;19.82;100.00
9277;BME280;4676;42.678;23.244;2023-06-24T02:34:22;94149.41;;;19.92;100.00
9277;BME280;4676;42.678;23.244;2023-06-24T02:36:49;94152.22;;;19.89;100.00
9277;BME280;4676;42.678;23.244;2023-06-24T02:39:18;94150.13;;;19.83;100.00
9277;BME280;4676;42.678;23.244;2023-06-24T02:41:45;94139.56;;;19.64;100.00
9277;BME280;4676;42.678;23.244;2023-06-24T02:44:13;94151.03;;;19.71;100.00
9277;BME280;4676;42.678;23.244;2023-06-24T02:46:40;94144.94;;;19.61;100.00
9277;BME280;4676;42.678;23.244;2023-06-24T02:49:09;94159.16;;;19.54;100.00
9277;BME280;4676;42.678;23.244;2023-06-24T02:51:37;94151.69;;;19.51;100.00
9277;BME280;4676;42.678;23.244;2023-06-24T02:54:04;94158.31;;;19.42;100.00
9277;BME280;4676;42.678;23.244;2023-06-24T02:56:33;94151.16;;;19.35;100.00
9277;BME280;4676;42.678;23.244;2023-06-24T02:59:00;94160.09;;;19.29;100.00
9277;BME280;4676;42.678;23.244;2023-06-24T03:01:27;94156.38;;;19.33;100.00
9277;BME280;4676;42.678;23.244;2023-06-24T03:03:54;94154.38;;;19.26;100.00
9277;BME280;4676;42.678;23.244;2023-06-24T03:06:22;94152.06;;;19.34;100.00
9277;BME280;4676;42.678;23.244;2023-06-24T03:08:49;94146.34;;;19.30;100.00
9277;BME280;4676;42.678;23.244;2023-06-24T03:11:16;94153.44;;;19.27;100.00
9277;BME280;4676;42.678;23.244;2023-06-24T03:13:44;94152.25;;;19.20;100.00
9277;BME280;4676;42.678;23.244;2023-06-24T03:16:11;94147.34;;;19.17;100.00
9277;BME280;4676;42.678;23.244;2023-06-24T03:18:40;94159.97;;;19.20;100.00
9277;BME280;4676;42.678;23.244;2023-06-24T03:21:07;94158.44;;;19.17;100.00
9277;BME280;4676;42.678;23.244;2023-06-24T03:23:34;94162.91;;;19.26;100.00
9277;BME280;4676;42.678;23.244;2023-06-24T03:26:01;94164.97;;;19.21;100.00
9277;BME280;4676;42.678;23.244;2023-06-24T03:28:29;94174.34;;;19.22;100.00
9277;BME280;4676;42.678;23.244;2023-06-24T03:30:57;94176.91;;;19.22;100.00
9277;BME280;4676;42.678;23.244;2023-06-24T03:33:24;94190.66;;;19.21;100.00
9277;BME280;4676;42.678;23.244;2023-06-24T03:35:52;94179.59;;;19.21;100.00
9277;BME280;4676;42.678;23.244;2023-06-24T03:38:19;94172.59;;;19.23;100.00
9277;BME280;4676;42.678;23.244;2023-06-24T03:40:46;94180.91;;;19.26;100.00
9277;BME280;4676;42.678;23.244;2023-06-24T03:43:13;94187.56;;;19.29;100.00
9277;BME280;4676;42.678;23.244;2023-06-24T03:45:39;94187.81;;;19.37;100.00
9277;BME280;4676;42.678;23.244;2023-06-24T03:48:07;94197.88;;;19.40;100.00
9277;BME280;4676;42.678;23.244;2023-06-24T03:50:34;94199.63;;;19.39;100.00
9277;BME280;4676;42.678;23.244;2023-06-24T03:53:01;94199.25;;;19.46;100.00
9277;BME280;4676;42.678;23.244;2023-06-24T03:55:28;94197.03;;;19.52;100.00
9277;BME280;4676;42.678;23.244;2023-06-24T03:57:55;94187.34;;;19.56;100.00
9277;BME280;4676;42.678;23.244;2023-06-24T04:00:22;94185.16;;;19.62;100.00
9277;BME280;4676;42.678;23.244;2023-06-24T04:02:48;94190.88;;;19.66;100.00
9277;BME280;4676;42.678;23.244;2023-06-24T04:05:16;94188.53;;;19.74;100.00
9277;BME280;4676;42.678;23.244;2023-06-24T04:07:43;94196.53;;;19.82;100.00
9277;BME280;4676;42.678;23.244;2023-06-24T04:10:12;94201.00;;;19.91;100.00
9277;BME280;4676;42.678;23.244;2023-06-24T04:12:39;94192.81;;;19.97;100.00
9277;BME280;4676;42.678;23.244;2023-06-24T04:15:07;94187.91;;;20.05;100.00
9277;BME280;4676;42.678;23.244;2023-06-24T04:17:34;94182.88;;;20.15;100.00
9277;BME280;4676;42.678;23.244;2023-06-24T04:20:00;94178.69;;;20.25;100.00
9277;BME280;4676;42.678;23.244;2023-06-24T04:22:36;94158.19;;;20.23;100.00
9277;BME280;4676;42.678;23.244;2023-06-24T04:25:03;94179.41;;;20.38;100.00
9277;BME280;4676;42.678;23.244;2023-06-24T04:27:31;94181.53;;;20.44;100.00
9277;BME280;4676;42.678;23.244;2023-06-24T04:29:58;94171.69;;;20.49;100.00
9277;BME280;4676;42.678;23.244;2023-06-24T04:32:24;94172.16;;;20.54;100.00
9277;BME280;4676;42.678;23.244;2023-06-24T04:34:51;94171.69;;;20.60;100.00
9277;BME280;4676;42.678;23.244;2023-06-24T04:37:18;94183.81;;;20.69;100.00
9277;BME280;4676;42.678;23.244;2023-06-24T04:39:47;94180.56;;;20.78;100.00
9277;BME280;4676;42.678;23.244;2023-06-24T04:42:14;94178.31;;;20.85;100.00
9277;BME280;4676;42.678;23.244;2023-06-24T04:44:41;94186.47;;;20.90;100.00
9277;BME280;4676;42.678;23.244;2023-06-24T04:47:07;94189.28;;;20.98;100.00
9277;BME280;4676;42.678;23.244;2023-06-24T04:49:34;94200.38;;;21.10;100.00
9277;BME280;4676;42.678;23.244;2023-06-24T04:52:01;94205.22;;;21.14;100.00
9277;BME280;4676;42.678;23.244;2023-06-24T04:54:27;94214.75;;;21.34;100.00
9277;BME280;4676;42.678;23.244;2023-06-24T04:56:55;94217.66;;;21.41;100.00
9277;BME280;4676;42.678;23.244;2023-06-24T04:59:22;94210.38;;;21.46;100.00
9277;BME280;4676;42.678;23.244;2023-06-24T05:01:49;94214.53;;;21.58;100.00
9277;BME280;4676;42.678;23.244;2023-06-24T05:04:16;94218.25;;;21.65;100.00
9277;BME280;4676;42.678;23.244;2023-06-24T05:06:42;94221.03;;;21.73;100.00
9277;BME280;4676;42.678;23.244;2023-06-24T05:09:09;94218.28;;;21.86;100.00
9277;BME280;4676;42.678;23.244;2023-06-24T05:11:38;94218.34;;;21.96;100.00
9277;BME280;4676;42.678;23.244;2023-06-24T05:14:07;94204.00;;;22.03;100.00
9277;BME280;4676;42.678;23.244;2023-06-24T05:16:33;94210.47;;;22.18;100.00
9277;BME280;4676;42.678;23.244;2023-06-24T05:19:00;94214.06;;;22.26;100.00
9277;BME280;4676;42.678;23.244;2023-06-24T05:21:27;94205.44;;;22.37;100.00
9277;BME280;4676;42.678;23.244;2023-06-24T05:23:54;94208.22;;;22.55;100.00
9277;BME280;4676;42.678;23.244;2023-06-24T05:26:20;94206.00;;;22.80;100.00
9277;BME280;4676;42.678;23.244;2023-06-24T05:28:47;94205.53;;;22.96;100.00
9277;BME280;4676;42.678;23.244;2023-06-24T05:31:15;94202.19;;;23.15;100.00
9277;BME280;4676;42.678;23.244;2023-06-24T05:33:42;94216.22;;;23.31;100.00
9277;BME280;4676;42.678;23.244;2023-06-24T05:36:08;94217.06;;;23.51;100.00
9277;BME280;4676;42.678;23.244;2023-06-24T05:38:35;94221.00;;;23.65;100.00
9277;BME280;4676;42.678;23.244;2023-06-24T05:41:02;94214.22;;;23.73;100.00
9277;BME280;4676;42.678;23.244;2023-06-24T05:43:28;94222.34;;;23.98;100.00
9277;BME280;4676;42.678;23.244;2023-06-24T05:45:55;94218.66;;;24.00;100.00
9277;BME280;4676;42.678;23.244;2023-06-24T05:48:23;94216.22;;;24.18;100.00
9277;BME280;4676;42.678;23.244;2023-06-24T05:50:50;94213.22;;;24.22;100.00
9277;BME280;4676;42.678;23.244;2023-06-24T05:53:17;94212.34;;;24.41;100.00
9277;BME280;4676;42.678;23.244;2023-06-24T05:55:44;94211.06;;;24.55;100.00
9277;BME280;4676;42.678;23.244;2023-06-24T05:58:11;94212.09;;;24.71;100.00
9277;BME280;4676;42.678;23.244;2023-06-24T06:00:37;94209.75;;;24.78;100.00
9277;BME280;4676;42.678;23.244;2023-06-24T06:03:04;94215.16;;;24.94;100.00
9277;BME280;4676;42.678;23.244;2023-06-24T06:05:32;94206.09;;;25.08;100.00
9277;BME280;4676;42.678;23.244;2023-06-24T06:07:59;94214.03;;;25.24;100.00
9277;BME280;4676;42.678;23.244;2023-06-24T06:10:26;94213.69;;;25.37;100.00
9277;BME280;4676;42.678;23.244;2023-06-24T06:12:52;94204.56;;;25.32;100.00
9277;BME280;4676;42.678;23.244;2023-06-24T06:15:19;94215.50;;;25.54;100.00
9277;BME280;4676;42.678;23.244;2023-06-24T06:17:46;94216.97;;;25.56;100.00
9277;BME280;4676;42.678;23.244;2023-06-24T06:20:13;94215.91;;;25.49;100.00
9277;BME280;4676;42.678;23.244;2023-06-24T06:22:41;94215.03;;;25.58;100.00
9277;BME280;4676;42.678;23.244;2023-06-24T06:25:08;94214.50;;;25.72;100.00
9277;BME280;4676;42.678;23.244;2023-06-24T06:27:35;94215.34;;;25.55;100.00
9277;BME280;4676;42.678;23.244;2023-06-24T06:30:03;94219.06;;;25.53;100.00
9277;BME280;4676;42.678;23.244;2023-06-24T06:32:30;94222.75;;;25.50;100.00
9277;BME280;4676;42.678;23.244;2023-06-24T06:34:56;94216.06;;;25.65;100.00
9277;BME280;4676;42.678;23.244;2023-06-24T06:37:23;94218.31;;;25.78;100.00
9277;BME280;4676;42.678;23.244;2023-06-24T06:39:51;94231.81;;;25.81;100.00
9277;BME280;4676;42.678;23.244;2023-06-24T06:42:18;94227.44;;;26.00;100.00
9277;BME280;4676;42.678;23.244;2023-06-24T06:44:44;94230.06;;;26.08;100.00
9277;BME280;4676;42.678;23.244;2023-06-24T06:47:11;94224.34;;;26.22;100.00
9277;BME280;4676;42.678;23.244;2023-06-24T06:49:38;94226.50;;;26.52;100.00
9277;BME280;4676;42.678;23.244;2023-06-24T06:52:05;94232.09;;;26.65;100.00
9277;BME280;4676;42.678;23.244;2023-06-24T06:54:32;94229.56;;;26.81;100.00
9277;BME280;4676;42.678;23.244;2023-06-24T06:57:02;94229.50;;;26.91;100.00
9277;BME280;4676;42.678;23.244;2023-06-24T06:59:29;94227.13;;;26.80;100.00
9277;BME280;4676;42.678;23.244;2023-06-24T07:01:56;94228.31;;;26.86;100.00
9277;BME280;4676;42.678;23.244;2023-06-24T07:04:22;94233.72;;;26.92;100.00
9277;BME280;4676;42.678;23.244;2023-06-24T07:06:50;94231.72;;;26.52;100.00
9277;BME280;4676;42.678;23.244;2023-06-24T07:11:54;94232.22;;;26.30;100.00
9277;BME280;4676;42.678;23.244;2023-06-24T07:14:22;94236.69;;;26.20;100.00
9277;BME280;4676;42.678;23.244;2023-06-24T07:16:49;94226.44;;;26.18;100.00
9277;BME280;4676;42.678;23.244;2023-06-24T07:19:15;94220.88;;;26.39;100.00
9277;BME280;4676;42.678;23.244;2023-06-24T07:21:42;94233.75;;;26.66;100.00
9277;BME280;4676;42.678;23.244;2023-06-24T07:24:09;94238.09;;;26.92;100.00
9277;BME280;4676;42.678;23.244;2023-06-24T07:26:36;94229.88;;;27.04;100.00
9277;BME280;4676;42.678;23.244;2023-06-24T07:29:05;94230.91;;;27.19;100.00
9277;BME280;4676;42.678;23.244;2023-06-24T07:31:34;94231.44;;;27.39;100.00
9277;BME280;4676;42.678;23.244;2023-06-24T07:34:01;94228.28;;;27.61;100.00
9277;BME280;4676;42.678;23.244;2023-06-24T07:36:27;94231.56;;;27.79;96.95
9277;BME280;4676;42.678;23.244;2023-06-24T07:41:30;94229.13;;;27.86;94.57
9277;BME280;4676;42.678;23.244;2023-06-24T07:43:56;94225.50;;;27.87;97.50
9277;BME280;4676;42.678;23.244;2023-06-24T07:46:23;94223.72;;;27.88;95.19
9277;BME280;4676;42.678;23.244;2023-06-24T07:48:53;94228.13;;;27.87;88.01
9277;BME280;4676;42.678;23.244;2023-06-24T07:51:20;94231.34;;;27.57;86.27
9277;BME280;4676;42.678;23.244;2023-06-24T07:53:47;94231.59;;;27.29;95.21
9277;BME280;4676;42.678;23.244;2023-06-24T07:56:13;94226.53;;;27.28;98.96
9277;BME280;4676;42.678;23.244;2023-06-24T07:58:40;94232.34;;;27.14;100.00
9277;BME280;4676;42.678;23.244;2023-06-24T08:01:07;94237.44;;;27.31;97.84
9277;BME280;4676;42.678;23.244;2023-06-24T08:03:34;94243.22;;;27.51;91.15
9277;BME280;4676;42.678;23.244;2023-06-24T08:06:03;94240.91;;;27.48;89.58
9277;BME280;4676;42.678;23.244;2023-06-24T08:08:30;94242.97;;;27.28;87.51
9277;BME280;4676;42.678;23.244;2023-06-24T08:10:57;94244.78;;;27.36;88.11
9277;BME280;4676;42.678;23.244;2023-06-24T08:13:23;94236.72;;;27.55;88.28
9277;BME280;4676;42.678;23.244;2023-06-24T08:15:50;94234.94;;;27.80;87.44
9277;BME280;4676;42.678;23.244;2023-06-24T08:18:17;94232.84;;;27.75;97.98
9277;BME280;4676;42.678;23.244;2023-06-24T08:20:43;94233.81;;;27.91;92.03
9277;BME280;4676;42.678;23.244;2023-06-24T08:23:11;94234.50;;;28.09;87.01
9277;BME280;4676;42.678;23.244;2023-06-24T08:26:50;94230.41;;;28.06;89.38
9277;BME280;4676;42.678;23.244;2023-06-24T08:29:18;94218.84;;;27.93;92.05
9277;BME280;4676;42.678;23.244;2023-06-24T08:31:45;94223.88;;;27.94;91.97
9277;BME280;4676;42.678;23.244;2023-06-24T08:34:11;94225.06;;;28.08;95.21
9277;BME280;4676;42.678;23.244;2023-06-24T08:36:38;94231.44;;;28.21;91.36
9277;BME280;4676;42.678;23.244;2023-06-24T08:39:05;94229.59;;;28.30;89.66
9277;BME280;4676;42.678;23.244;2023-06-24T08:41:31;94210.22;;;28.33;97.30
9277;BME280;4676;42.678;23.244;2023-06-24T08:43:59;94212.31;;;28.45;90.45
9277;BME280;4676;42.678;23.244;2023-06-24T08:46:27;94204.94;;;28.65;93.95
9277;BME280;4676;42.678;23.244;2023-06-24T08:49:00;94215.50;;;28.80;89.13
9277;BME280;4676;42.678;23.244;2023-06-24T08:51:31;94206.03;;;28.87;81.45
9277;BME280;4676;42.678;23.244;2023-06-24T08:54:02;94205.91;;;28.72;95.92
9277;BME280;4676;42.678;23.244;2023-06-24T08:56:28;94210.78;;;28.75;87.93
9277;BME280;4676;42.678;23.244;2023-06-24T08:58:55;94204.94;;;28.73;79.35
9277;BME280;4676;42.678;23.244;2023-06-24T09:01:24;94214.59;;;28.56;80.98
9277;BME280;4676;42.678;23.244;2023-06-24T09:03:52;94209.03;;;28.59;90.29
9277;BME280;4676;42.678;23.244;2023-06-24T09:06:18;94205.56;;;28.75;93.94
9277;BME280;4676;42.678;23.244;2023-06-24T09:08:52;94200.44;;;28.98;94.64
9277;BME280;4676;42.678;23.244;2023-06-24T09:11:22;94206.28;;;29.08;94.71
9277;BME280;4676;42.678;23.244;2023-06-24T09:13:54;94204.28;;;29.10;88.24
9277;BME280;4676;42.678;23.244;2023-06-24T09:16:21;94200.66;;;29.27;100.00
9277;BME280;4676;42.678;23.244;2023-06-24T09:18:50;94202.31;;;29.51;100.00
9277;BME280;4676;42.678;23.244;2023-06-24T09:21:23;94208.47;;;29.58;80.23
9277;BME280;4676;42.678;23.244;2023-06-24T09:23:53;94209.38;;;29.73;82.11
9277;BME280;4676;42.678;23.244;2023-06-24T09:26:22;94211.25;;;29.56;82.89
9277;BME280;4676;42.678;23.244;2023-06-24T09:28:49;94214.06;;;29.55;79.64
9277;BME280;4676;42.678;23.244;2023-06-24T09:31:17;94214.66;;;29.34;82.79
9277;BME280;4676;42.678;23.244;2023-06-24T09:33:45;94207.22;;;29.46;86.05
9277;BME280;4676;42.678;23.244;2023-06-24T09:36:14;94208.41;;;29.43;80.19
9277;BME280;4676;42.678;23.244;2023-06-24T09:38:42;94213.13;;;29.48;89.19
9277;BME280;4676;42.678;23.244;2023-06-24T09:41:09;94200.06;;;29.48;82.05
9277;BME280;4676;42.678;23.244;2023-06-24T09:43:37;94209.72;;;29.39;83.21
9277;BME280;4676;42.678;23.244;2023-06-24T09:46:05;94210.03;;;29.44;80.14
9277;BME280;4676;42.678;23.244;2023-06-24T09:48:33;94209.81;;;29.54;85.12
9277;BME280;4676;42.678;23.244;2023-06-24T09:51:01;94208.09;;;29.38;79.51
9277;BME280;4676;42.678;23.244;2023-06-24T09:53:30;94200.91;;;29.40;83.57
9277;BME280;4676;42.678;23.244;2023-06-24T09:55:58;94208.75;;;29.40;77.64
9277;BME280;4676;42.678;23.244;2023-06-24T09:58:26;94200.59;;;29.35;77.03
9277;BME280;4676;42.678;23.244;2023-06-24T10:00:54;94187.91;;;29.32;76.38
9277;BME280;4676;42.678;23.244;2023-06-24T10:03:21;94183.81;;;29.38;81.84
9277;BME280;4676;42.678;23.244;2023-06-24T10:05:49;94184.31;;;29.33;75.32
9277;BME280;4676;42.678;23.244;2023-06-24T10:08:16;94184.19;;;29.27;76.93
9277;BME280;4676;42.678;23.244;2023-06-24T10:10:45;94183.03;;;29.21;79.34
9277;BME280;4676;42.678;23.244;2023-06-24T10:13:12;94184.66;;;29.22;78.92
9277;BME280;4676;42.678;23.244;2023-06-24T10:15:39;94178.28;;;29.24;77.38
9277;BME280;4676;42.678;23.244;2023-06-24T10:18:33;94178.97;;;29.18;73.78
9277;BME280;4676;42.678;23.244;2023-06-24T10:21:00;94161.50;;;29.19;73.42
9277;BME280;4676;42.678;23.244;2023-06-24T10:23:30;94162.31;;;29.19;68.93
9277;BME280;4676;42.678;23.244;2023-06-24T10:25:58;94154.19;;;29.14;74.23
9277;BME280;4676;42.678;23.244;2023-06-24T10:28:25;94156.78;;;29.14;78.24
9277;BME280;4676;42.678;23.244;2023-06-24T10:30:56;94163.66;;;29.15;77.18
9277;BME280;4676;42.678;23.244;2023-06-24T10:33:23;94150.25;;;29.27;73.31
9277;BME280;4676;42.678;23.244;2023-06-24T10:35:50;94142.06;;;29.30;68.94
9277;BME280;4676;42.678;23.244;2023-06-24T10:38:18;94144.19;;;29.26;66.57
9277;BME280;4676;42.678;23.244;2023-06-24T10:40:45;94139.81;;;29.27;72.83
9277;BME280;4676;42.678;23.244;2023-06-24T10:43:29;94127.38;;;29.29;78.72
9277;BME280;4676;42.678;23.244;2023-06-24T10:45:57;94124.59;;;29.30;70.71
9277;BME280;4676;42.678;23.244;2023-06-24T10:48:24;94106.03;;;29.48;75.56
9277;BME280;4676;42.678;23.244;2023-06-24T10:50:51;94113.16;;;29.54;72.05
9277;BME280;4676;42.678;23.244;2023-06-24T10:53:18;94111.06;;;29.49;76.44
9277;BME280;4676;42.678;23.244;2023-06-24T10:55:45;94108.84;;;29.61;79.26
9277;BME280;4676;42.678;23.244;2023-06-24T10:58:12;94113.56;;;29.65;76.96
9277;BME280;4676;42.678;23.244;2023-06-24T11:00:42;94099.78;;;29.71;75.67
9277;BME280;4676;42.678;23.244;2023-06-24T11:03:12;94097.47;;;29.77;73.86
9277;BME280;4676;42.678;23.244;2023-06-24T11:05:39;94103.75;;;29.90;75.51
9277;BME280;4676;42.678;23.244;2023-06-24T11:08:07;94105.47;;;29.98;68.24
9277;BME280;4676;42.678;23.244;2023-06-24T11:10:33;94092.94;;;29.93;69.09
9277;BME280;4676;42.678;23.244;2023-06-24T11:13:08;94106.81;;;30.08;68.65
9277;BME280;4676;42.678;23.244;2023-06-24T11:15:34;94116.22;;;30.17;63.34
9277;BME280;4676;42.678;23.244;2023-06-24T11:18:03;94111.41;;;30.06;63.10
9277;BME280;4676;42.678;23.244;2023-06-24T11:20:30;94104.56;;;29.91;68.36
9277;BME280;4676;42.678;23.244;2023-06-24T11:22:57;94108.78;;;29.92;62.84
9277;BME280;4676;42.678;23.244;2023-06-24T11:25:23;94107.63;;;29.94;56.22
9277;BME280;4676;42.678;23.244;2023-06-24T11:27:50;94095.09;;;29.90;63.54
9277;BME280;4676;42.678;23.244;2023-06-24T11:30:18;94106.81;;;29.94;62.03
9277;BME280;4676;42.678;23.244;2023-06-24T11:32:45;94096.25;;;30.02;68.95
9277;BME280;4676;42.678;23.244;2023-06-24T11:35:14;94094.56;;;30.09;60.14
9277;BME280;4676;42.678;23.244;2023-06-24T11:37:41;94101.13;;;30.19;56.97
9277;BME280;4676;42.678;23.244;2023-06-24T11:40:10;94100.00;;;30.22;59.69
9277;BME280;4676;42.678;23.244;2023-06-24T11:42:38;94096.28;;;30.31;62.96
9277;BME280;4676;42.678;23.244;2023-06-24T11:45:07;94093.66;;;30.31;61.40
9277;BME280;4676;42.678;23.244;2023-06-24T11:47:35;94091.66;;;30.33;62.64
9277;BME280;4676;42.678;23.244;2023-06-24T11:50:03;94086.88;;;30.37;63.22
9277;BME280;4676;42.678;23.244;2023-06-24T11:52:40;94085.19;;;30.29;64.43
9277;BME280;4676;42.678;23.244;2023-06-24T11:55:16;94082.22;;;30.17;63.14
9277;BME280;4676;42.678;23.244;2023-06-24T11:57:50;94076.97;;;30.03;60.72
9277;BME280;4676;42.678;23.244;2023-06-24T12:00:20;94068.50;;;29.86;62.35
9277;BME280;4676;42.678;23.244;2023-06-24T12:02:49;94052.75;;;29.71;62.39
9277;BME280;4676;42.678;23.244;2023-06-24T12:05:20;94051.84;;;29.64;66.60
9277;BME280;4676;42.678;23.244;2023-06-24T12:07:54;94046.00;;;29.62;75.05
9277;BME280;4676;42.678;23.244;2023-06-24T12:10:21;94034.28;;;29.58;78.70
9277;BME280;4676;42.678;23.244;2023-06-24T12:12:48;94032.47;;;29.59;75.77
9277;BME280;4676;42.678;23.244;2023-06-24T12:15:15;94034.16;;;29.52;81.69
9277;BME280;4676;42.678;23.244;2023-06-24T12:17:42;94034.03;;;29.45;82.19
9277;BME280;4676;42.678;23.244;2023-06-24T12:20:09;94041.16;;;29.37;80.82
9277;BME280;4676;42.678;23.244;2023-06-24T12:22:36;94037.97;;;29.27;81.31
9277;BME280;4676;42.678;23.244;2023-06-24T12:25:05;94040.97;;;29.15;71.46
9277;BME280;4676;42.678;23.244;2023-06-24T12:27:32;94036.25;;;29.11;69.00
9277;BME280;4676;42.678;23.244;2023-06-24T12:29:59;94034.81;;;29.08;72.66
9277;BME280;4676;42.678;23.244;2023-06-24T12:32:26;94042.53;;;29.02;73.61
9277;BME280;4676;42.678;23.244;2023-06-24T12:34:53;94033.56;;;28.96;90.42
9277;BME280;4676;42.678;23.244;2023-06-24T12:37:20;94031.09;;;28.80;76.92
9277;BME280;4676;42.678;23.244;2023-06-24T12:39:46;94047.94;;;28.69;76.39
9277;BME280;4676;42.678;23.244;2023-06-24T12:42:14;94066.19;;;28.61;90.55
9277;BME280;4676;42.678;23.244;2023-06-24T12:44:41;94078.47;;;28.53;96.60
9277;BME280;4676;42.678;23.244;2023-06-24T12:47:08;94088.31;;;28.43;96.10
9277;BME280;4676;42.678;23.244;2023-06-24T12:49:34;94096.97;;;28.35;99.11
9277;BME280;4676;42.678;23.244;2023-06-24T12:52:01;94098.78;;;28.18;97.91
9277;BME280;4676;42.678;23.244;2023-06-24T12:54:28;94101.25;;;28.12;97.45
9277;BME280;4676;42.678;23.244;2023-06-24T12:56:55;94105.81;;;28.02;98.44
9277;BME280;4676;42.678;23.244;2023-06-24T12:59:23;94097.38;;;27.92;100.00
9277;BME280;4676;42.678;23.244;2023-06-24T13:01:51;94093.63;;;27.78;100.00
9277;BME280;4676;42.678;23.244;2023-06-24T13:04:17;94081.63;;;27.69;100.00
9277;BME280;4676;42.678;23.244;2023-06-24T13:06:45;94068.13;;;27.57;100.00
9277;BME280;4676;42.678;23.244;2023-06-24T13:09:12;94060.28;;;27.49;100.00
9277;BME280;4676;42.678;23.244;2023-06-24T13:11:38;94063.38;;;27.45;86.73
9277;BME280;4676;42.678;23.244;2023-06-24T13:14:05;94079.34;;;27.58;78.76
9277;BME280;4676;42.678;23.244;2023-06-24T13:16:33;94070.38;;;27.52;94.45
9277;BME280;4676;42.678;23.244;2023-06-24T13:19:01;94072.13;;;27.11;100.00